sensor_id;sensor_type;location;lat;lon;timestamp;P1;durP1;ratioP1;P2;durP2;ratioP2
4011;SDS011;2020;48.682;9.024;2023-08-06T00:01:59;1.87;;;1.87;;
4011;SDS011;2020;48.682;9.024;2023-08-06T00:04:25;1.67;;;1.57;;
4011;SDS011;2020;48.682;9.024;2023-08-06T00:06:50;1.40;;;1.40;;
4011;SDS011;2020;48.682;9.024;2023-08-06T00:09:15;1.93;;;1.50;;
4011;SDS011;2020;48.682;9.024;2023-08-06T00:11:41;1.40;;;1.30;;
4011;SDS011;2020;48.682;9.024;2023-08-06T00:14:08;1.50;;;1.50;;
4011;SDS011;2020;48.682;9.024;2023-08-06T00:16:34;1.40;;;1.40;;
4011;SDS011;2020;48.682;9.024;2023-08-06T00:18:59;1.53;;;1.53;;
4011;SDS011;2020;48.682;9.024;2023-08-06T00:21:24;1.20;;;1.20;;
4011;SDS011;2020;48.682;9.024;2023-08-06T00:23:49;4.00;;;1.87;;
4011;SDS011;2020;48.682;9.024;2023-08-06T00:26:15;0.97;;;0.97;;
4011;SDS011;2020;48.682;9.024;2023-08-06T00:28:40;1.50;;;1.40;;
4011;SDS011;2020;48.682;9.024;2023-08-06T00:31:05;1.33;;;1.33;;
4011;SDS011;2020;48.682;9.024;2023-08-06T00:33:30;1.63;;;1.53;;
4011;SDS011;2020;48.682;9.024;2023-08-06T00:35:56;1.33;;;1.33;;
4011;SDS011;2020;48.682;9.024;2023-08-06T00:38:21;1.23;;;1.23;;
4011;SDS011;2020;48.682;9.024;2023-08-06T00:40:46;1.53;;;1.53;;
4011;SDS011;2020;48.682;9.024;2023-08-06T00:43:12;2.10;;;2.00;;
4011;SDS011;2020;48.682;9.024;2023-08-06T00:45:37;2.30;;;1.27;;
4011;SDS011;2020;48.682;9.024;2023-08-06T00:48:03;1.90;;;1.80;;
4011;SDS011;2020;48.682;9.024;2023-08-06T00:50:31;1.43;;;1.43;;
4011;SDS011;2020;48.682;9.024;2023-08-06T00:52:57;1.87;;;1.77;;
4011;SDS011;2020;48.682;9.024;2023-08-06T00:55:23;2.07;;;1.97;;
4011;SDS011;2020;48.682;9.024;2023-08-06T00:57:48;1.60;;;1.50;;
4011;SDS011;2020;48.682;9.024;2023-08-06T01:00:15;1.73;;;1.70;;
4011;SDS011;2020;48.682;9.024;2023-08-06T01:02:40;1.63;;;1.63;;
4011;SDS011;2020;48.682;9.024;2023-08-06T01:05:05;1.80;;;1.80;;
4011;SDS011;2020;48.682;9.024;2023-08-06T01:10:33;1.50;;;1.47;;
4011;SDS011;2020;48.682;9.024;2023-08-06T01:16:08;2.67;;;2.57;;
4011;SDS011;2020;48.682;9.024;2023-08-06T01:18:35;2.07;;;2.00;;
4011;SDS011;2020;48.682;9.024;2023-08-06T01:21:02;1.80;;;1.73;;
4011;SDS011;2020;48.682;9.024;2023-08-06T01:23:27;1.80;;;1.80;;
4011;SDS011;2020;48.682;9.024;2023-08-06T01:28:40;1.80;;;1.70;;
4011;SDS011;2020;48.682;9.024;2023-08-06T01:31:07;1.70;;;1.60;;
4011;SDS011;2020;48.682;9.024;2023-08-06T01:33:38;1.97;;;1.90;;
4011;SDS011;2020;48.682;9.024;2023-08-06T01:36:09;1.50;;;1.40;;
4011;SDS011;2020;48.682;9.024;2023-08-06T01:38:35;1.93;;;1.87;;
4011;SDS011;2020;48.682;9.024;2023-08-06T01:41:00;2.27;;;2.20;;
4011;SDS011;2020;48.682;9.024;2023-08-06T01:43:25;1.93;;;1.83;;
4011;SDS011;2020;48.682;9.024;2023-08-06T01:45:51;2.20;;;2.10;;
4011;SDS011;2020;48.682;9.024;2023-08-06T01:48:16;1.80;;;1.80;;
4011;SDS011;2020;48.682;9.024;2023-08-06T01:50:41;1.77;;;1.70;;
4011;SDS011;2020;48.682;9.024;2023-08-06T01:53:06;1.23;;;1.23;;
4011;SDS011;2020;48.682;9.024;2023-08-06T01:55:32;1.53;;;1.30;;
4011;SDS011;2020;48.682;9.024;2023-08-06T01:57:57;1.77;;;1.77;;
4011;SDS011;2020;48.682;9.024;2023-08-06T02:00:22;2.00;;;1.90;;
4011;SDS011;2020;48.682;9.024;2023-08-06T02:02:47;2.10;;;1.90;;
4011;SDS011;2020;48.682;9.024;2023-08-06T02:05:13;1.63;;;1.53;;
4011;SDS011;2020;48.682;9.024;2023-08-06T02:07:38;1.90;;;1.80;;
4011;SDS011;2020;48.682;9.024;2023-08-06T02:10:03;1.27;;;1.27;;
4011;SDS011;2020;48.682;9.024;2023-08-06T02:12:29;1.93;;;1.67;;
4011;SDS011;2020;48.682;9.024;2023-08-06T02:14:54;1.50;;;1.40;;
4011;SDS011;2020;48.682;9.024;2023-08-06T02:17:19;1.93;;;1.83;;
4011;SDS011;2020;48.682;9.024;2023-08-06T02:19:44;1.47;;;1.47;;
4011;SDS011;2020;48.682;9.024;2023-08-06T02:22:10;2.63;;;2.53;;
4011;SDS011;2020;48.682;9.024;2023-08-06T02:24:35;1.60;;;1.60;;
4011;SDS011;2020;48.682;9.024;2023-08-06T02:27:00;1.53;;;1.53;;
4011;SDS011;2020;48.682;9.024;2023-08-06T02:29:26;1.80;;;1.70;;
4011;SDS011;2020;48.682;9.024;2023-08-06T02:31:51;2.90;;;1.40;;
4011;SDS011;2020;48.682;9.024;2023-08-06T02:34:16;1.87;;;1.77;;
4011;SDS011;2020;48.682;9.024;2023-08-06T02:36:41;1.90;;;1.50;;
4011;SDS011;2020;48.682;9.024;2023-08-06T02:39:07;2.00;;;1.60;;
4011;SDS011;2020;48.682;9.024;2023-08-06T02:41:32;4.10;;;1.40;;
4011;SDS011;2020;48.682;9.024;2023-08-06T02:43:57;2.70;;;1.70;;
4011;SDS011;2020;48.682;9.024;2023-08-06T02:46:22;1.33;;;1.33;;
4011;SDS011;2020;48.682;9.024;2023-08-06T02:48:49;1.70;;;1.60;;
4011;SDS011;2020;48.682;9.024;2023-08-06T02:51:14;1.20;;;1.20;;
4011;SDS011;2020;48.682;9.024;2023-08-06T02:53:39;1.83;;;1.73;;
4011;SDS011;2020;48.682;9.024;2023-08-06T02:56:04;1.43;;;1.43;;
4011;SDS011;2020;48.682;9.024;2023-08-06T02:58:30;1.60;;;1.50;;
4011;SDS011;2020;48.682;9.024;2023-08-06T03:00:59;2.00;;;1.93;;
4011;SDS011;2020;48.682;9.024;2023-08-06T03:03:25;1.10;;;1.10;;
4011;SDS011;2020;48.682;9.024;2023-08-06T03:05:53;1.60;;;1.50;;
4011;SDS011;2020;48.682;9.024;2023-08-06T03:08:19;7.80;;;1.43;;
4011;SDS011;2020;48.682;9.024;2023-08-06T03:10:47;2.30;;;1.30;;
4011;SDS011;2020;48.682;9.024;2023-08-06T03:13:16;1.60;;;1.60;;
4011;SDS011;2020;48.682;9.024;2023-08-06T03:15:41;2.77;;;1.47;;
4011;SDS011;2020;48.682;9.024;2023-08-06T03:18:07;1.33;;;1.20;;
4011;SDS011;2020;48.682;9.024;2023-08-06T03:20:32;1.03;;;1.03;;
4011;SDS011;2020;48.682;9.024;2023-08-06T03:22:57;1.00;;;1.00;;
4011;SDS011;2020;48.682;9.024;2023-08-06T03:25:23;1.83;;;1.63;;
4011;SDS011;2020;48.682;9.024;2023-08-06T03:27:48;1.53;;;1.53;;
4011;SDS011;2020;48.682;9.024;2023-08-06T03:30:13;1.20;;;1.10;;
4011;SDS011;2020;48.682;9.024;2023-08-06T03:32:38;1.00;;;1.00;;
4011;SDS011;2020;48.682;9.024;2023-08-06T03:35:04;3.00;;;1.20;;
4011;SDS011;2020;48.682;9.024;2023-08-06T03:37:29;1.43;;;1.33;;
4011;SDS011;2020;48.682;9.024;2023-08-06T03:39:55;1.20;;;0.83;;
4011;SDS011;2020;48.682;9.024;2023-08-06T03:42:20;3.07;;;1.47;;
4011;SDS011;2020;48.682;9.024;2023-08-06T03:44:45;1.00;;;1.00;;
4011;SDS011;2020;48.682;9.024;2023-08-06T03:47:12;1.30;;;1.20;;
4011;SDS011;2020;48.682;9.024;2023-08-06T03:49:37;1.33;;;1.33;;
4011;SDS011;2020;48.682;9.024;2023-08-06T03:52:03;1.43;;;1.13;;
4011;SDS011;2020;48.682;9.024;2023-08-06T03:54:28;1.10;;;1.10;;
4011;SDS011;2020;48.682;9.024;2023-08-06T03:56:55;1.30;;;1.07;;
4011;SDS011;2020;48.682;9.024;2023-08-06T03:59:20;1.30;;;1.20;;
4011;SDS011;2020;48.682;9.024;2023-08-06T04:01:45;1.53;;;1.20;;
4011;SDS011;2020;48.682;9.024;2023-08-06T04:04:11;4.07;;;1.27;;
4011;SDS011;2020;48.682;9.024;2023-08-06T04:06:36;1.27;;;1.10;;
4011;SDS011;2020;48.682;9.024;2023-08-06T04:09:01;1.40;;;1.30;;
4011;SDS011;2020;48.682;9.024;2023-08-06T04:11:26;1.20;;;1.20;;
4011;SDS011;2020;48.682;9.024;2023-08-06T04:13:52;1.30;;;0.90;;
4011;SDS011;2020;48.682;9.024;2023-08-06T04:16:19;1.00;;;1.00;;
4011;SDS011;2020;48.682;9.024;2023-08-06T04:18:44;1.07;;;1.07;;
4011;SDS011;2020;48.682;9.024;2023-08-06T04:21:10;1.17;;;1.13;;
4011;SDS011;2020;48.682;9.024;2023-08-06T04:23:36;1.00;;;1.00;;
4011;SDS011;2020;48.682;9.024;2023-08-06T04:26:01;1.10;;;1.10;;
4011;SDS011;2020;48.682;9.024;2023-08-06T04:28:26;1.43;;;1.23;;
4011;SDS011;2020;48.682;9.024;2023-08-06T04:30:51;1.20;;;1.20;;
4011;SDS011;2020;48.682;9.024;2023-08-06T04:33:18;1.00;;;0.90;;
4011;SDS011;2020;48.682;9.024;2023-08-06T04:35:43;0.60;;;0.60;;
4011;SDS011;2020;48.682;9.024;2023-08-06T04:38:09;1.00;;;1.00;;
4011;SDS011;2020;48.682;9.024;2023-08-06T04:40:35;0.80;;;0.80;;
4011;SDS011;2020;48.682;9.024;2023-08-06T04:43:00;0.80;;;0.80;;
4011;SDS011;2020;48.682;9.024;2023-08-06T04:45:25;0.80;;;0.80;;
4011;SDS011;2020;48.682;9.024;2023-08-06T04:47:51;1.10;;;1.00;;
4011;SDS011;2020;48.682;9.024;2023-08-06T04:50:16;0.80;;;0.60;;
4011;SDS011;2020;48.682;9.024;2023-08-06T04:52:41;0.57;;;0.57;;
4011;SDS011;2020;48.682;9.024;2023-08-06T04:55:06;1.23;;;0.60;;
4011;SDS011;2020;48.682;9.024;2023-08-06T04:57:32;0.70;;;0.70;;
4011;SDS011;2020;48.682;9.024;2023-08-06T04:59:57;0.70;;;0.70;;
4011;SDS011;2020;48.682;9.024;2023-08-06T05:02:22;0.80;;;0.80;;
4011;SDS011;2020;48.682;9.024;2023-08-06T05:04:48;2.13;;;0.60;;
4011;SDS011;2020;48.682;9.024;2023-08-06T05:07:13;0.60;;;0.60;;
4011;SDS011;2020;48.682;9.024;2023-08-06T05:09:38;0.70;;;0.60;;
4011;SDS011;2020;48.682;9.024;2023-08-06T05:12:04;0.67;;;0.67;;
4011;SDS011;2020;48.682;9.024;2023-08-06T05:14:29;0.60;;;0.60;;
4011;SDS011;2020;48.682;9.024;2023-08-06T05:16:55;1.63;;;0.70;;
4011;SDS011;2020;48.682;9.024;2023-08-06T05:19:20;0.60;;;0.60;;
4011;SDS011;2020;48.682;9.024;2023-08-06T05:21:45;0.70;;;0.53;;
4011;SDS011;2020;48.682;9.024;2023-08-06T05:24:10;0.93;;;0.60;;
4011;SDS011;2020;48.682;9.024;2023-08-06T05:26:37;0.57;;;0.57;;
4011;SDS011;2020;48.682;9.024;2023-08-06T05:29:02;0.70;;;0.50;;
4011;SDS011;2020;48.682;9.024;2023-08-06T05:31:27;1.37;;;0.60;;
4011;SDS011;2020;48.682;9.024;2023-08-06T05:33:54;1.50;;;0.60;;
4011;SDS011;2020;48.682;9.024;2023-08-06T05:36:19;0.60;;;0.60;;
4011;SDS011;2020;48.682;9.024;2023-08-06T05:38:44;1.47;;;0.70;;
4011;SDS011;2020;48.682;9.024;2023-08-06T05:41:10;0.70;;;0.70;;
4011;SDS011;2020;48.682;9.024;2023-08-06T05:43:35;2.00;;;0.57;;
4011;SDS011;2020;48.682;9.024;2023-08-06T05:46:00;0.50;;;0.50;;
4011;SDS011;2020;48.682;9.024;2023-08-06T05:48:26;0.63;;;0.60;;
4011;SDS011;2020;48.682;9.024;2023-08-06T05:50:52;0.50;;;0.50;;
4011;SDS011;2020;48.682;9.024;2023-08-06T05:53:18;1.20;;;0.50;;
4011;SDS011;2020;48.682;9.024;2023-08-06T05:55:43;0.50;;;0.50;;
4011;SDS011;2020;48.682;9.024;2023-08-06T05:58:09;0.73;;;0.60;;
4011;SDS011;2020;48.682;9.024;2023-08-06T06:00:34;0.70;;;0.70;;
4011;SDS011;2020;48.682;9.024;2023-08-06T06:03:00;2.70;;;0.60;;
4011;SDS011;2020;48.682;9.024;2023-08-06T06:05:25;0.70;;;0.50;;
4011;SDS011;2020;48.682;9.024;2023-08-06T06:07:50;2.20;;;0.50;;
4011;SDS011;2020;48.682;9.024;2023-08-06T06:10:16;0.70;;;0.70;;
4011;SDS011;2020;48.682;9.024;2023-08-06T06:12:41;0.50;;;0.50;;
4011;SDS011;2020;48.682;9.024;2023-08-06T06:15:06;0.60;;;0.60;;
4011;SDS011;2020;48.682;9.024;2023-08-06T06:17:32;0.53;;;0.53;;
4011;SDS011;2020;48.682;9.024;2023-08-06T06:19:57;1.23;;;0.67;;
4011;SDS011;2020;48.682;9.024;2023-08-06T06:22:22;0.60;;;0.60;;
4011;SDS011;2020;48.682;9.024;2023-08-06T06:24:48;0.53;;;0.53;;
4011;SDS011;2020;48.682;9.024;2023-08-06T06:27:13;1.90;;;0.50;;
4011;SDS011;2020;48.682;9.024;2023-08-06T06:29:38;4.53;;;0.53;;
4011;SDS011;2020;48.682;9.024;2023-08-06T06:32:04;4.97;;;0.60;;
4011;SDS011;2020;48.682;9.024;2023-08-06T06:34:29;0.60;;;0.60;;
4011;SDS011;2020;48.682;9.024;2023-08-06T06:36:54;0.50;;;0.50;;
4011;SDS011;2020;48.682;9.024;2023-08-06T06:39:20;0.60;;;0.60;;
4011;SDS011;2020;48.682;9.024;2023-08-06T06:41:46;0.47;;;0.47;;
4011;SDS011;2020;48.682;9.024;2023-08-06T06:44:11;0.40;;;0.40;;
4011;SDS011;2020;48.682;9.024;2023-08-06T06:46:36;0.60;;;0.60;;
4011;SDS011;2020;48.682;9.024;2023-08-06T06:49:02;0.50;;;0.50;;
4011;SDS011;2020;48.682;9.024;2023-08-06T06:51:27;1.23;;;0.60;;
4011;SDS011;2020;48.682;9.024;2023-08-06T06:53:52;0.60;;;0.60;;
4011;SDS011;2020;48.682;9.024;2023-08-06T06:56:17;0.43;;;0.43;;
4011;SDS011;2020;48.682;9.024;2023-08-06T06:58:43;0.87;;;0.77;;
4011;SDS011;2020;48.682;9.024;2023-08-06T07:01:08;1.67;;;0.60;;
4011;SDS011;2020;48.682;9.024;2023-08-06T07:03:35;0.93;;;0.60;;
4011;SDS011;2020;48.682;9.024;2023-08-06T07:06:00;0.60;;;0.60;;
4011;SDS011;2020;48.682;9.024;2023-08-06T07:08:26;0.50;;;0.50;;
4011;SDS011;2020;48.682;9.024;2023-08-06T07:10:59;0.50;;;0.50;;
4011;SDS011;2020;48.682;9.024;2023-08-06T07:13:26;0.50;;;0.50;;
4011;SDS011;2020;48.682;9.024;2023-08-06T07:15:51;0.40;;;0.40;;
4011;SDS011;2020;48.682;9.024;2023-08-06T07:18:16;0.47;;;0.47;;
4011;SDS011;2020;48.682;9.024;2023-08-06T07:20:41;0.70;;;0.70;;
4011;SDS011;2020;48.682;9.024;2023-08-06T07:23:12;1.00;;;0.50;;
4011;SDS011;2020;48.682;9.024;2023-08-06T07:25:37;0.40;;;0.40;;
4011;SDS011;2020;48.682;9.024;2023-08-06T07:28:03;0.40;;;0.40;;
4011;SDS011;2020;48.682;9.024;2023-08-06T07:30:28;0.40;;;0.40;;
4011;SDS011;2020;48.682;9.024;2023-08-06T07:32:54;0.57;;;0.57;;
4011;SDS011;2020;48.682;9.024;2023-08-06T07:35:19;1.53;;;0.40;;
4011;SDS011;2020;48.682;9.024;2023-08-06T07:37:44;0.40;;;0.40;;
4011;SDS011;2020;48.682;9.024;2023-08-06T07:40:10;0.40;;;0.40;;
4011;SDS011;2020;48.682;9.024;2023-08-06T07:42:35;0.40;;;0.40;;
4011;SDS011;2020;48.682;9.024;2023-08-06T07:45:01;0.40;;;0.40;;
4011;SDS011;2020;48.682;9.024;2023-08-06T07:47:27;0.40;;;0.40;;
4011;SDS011;2020;48.682;9.024;2023-08-06T07:49:52;0.30;;;0.30;;
4011;SDS011;2020;48.682;9.024;2023-08-06T07:52:17;0.40;;;0.40;;
4011;SDS011;2020;48.682;9.024;2023-08-06T07:54:43;0.40;;;0.40;;
4011;SDS011;2020;48.682;9.024;2023-08-06T07:57:08;0.50;;;0.40;;
4011;SDS011;2020;48.682;9.024;2023-08-06T07:59:33;0.30;;;0.30;;
4011;SDS011;2020;48.682;9.024;2023-08-06T08:02:00;0.50;;;0.40;;
4011;SDS011;2020;48.682;9.024;2023-08-06T08:04:25;1.47;;;0.30;;
4011;SDS011;2020;48.682;9.024;2023-08-06T08:06:50;0.40;;;0.40;;
4011;SDS011;2020;48.682;9.024;2023-08-06T08:09:16;0.30;;;0.30;;
4011;SDS011;2020;48.682;9.024;2023-08-06T08:11:41;0.50;;;0.50;;
4011;SDS011;2020;48.682;9.024;2023-08-06T08:14:07;0.40;;;0.40;;
4011;SDS011;2020;48.682;9.024;2023-08-06T08:16:32;0.40;;;0.40;;
4011;SDS011;2020;48.682;9.024;2023-08-06T08:18:58;0.30;;;0.30;;
4011;SDS011;2020;48.682;9.024;2023-08-06T08:21:23;0.40;;;0.40;;
4011;SDS011;2020;48.682;9.024;2023-08-06T08:23:51;0.30;;;0.30;;
4011;SDS011;2020;48.682;9.024;2023-08-06T08:26:17;0.40;;;0.37;;
4011;SDS011;2020;48.682;9.024;2023-08-06T08:28:42;0.30;;;0.30;;
4011;SDS011;2020;48.682;9.024;2023-08-06T08:31:08;0.40;;;0.40;;
4011;SDS011;2020;48.682;9.024;2023-08-06T08:33:34;0.40;;;0.40;;
4011;SDS011;2020;48.682;9.024;2023-08-06T08:35:59;0.40;;;0.40;;
4011;SDS011;2020;48.682;9.024;2023-08-06T08:38:25;0.40;;;0.40;;
4011;SDS011;2020;48.682;9.024;2023-08-06T08:40:51;0.40;;;0.40;;
4011;SDS011;2020;48.682;9.024;2023-08-06T08:43:17;0.40;;;0.37;;
4011;SDS011;2020;48.682;9.024;2023-08-06T08:45:45;0.40;;;0.40;;
4011;SDS011;2020;48.682;9.024;2023-08-06T08:48:15;0.33;;;0.33;;
4011;SDS011;2020;48.682;9.024;2023-08-06T08:50:44;0.77;;;0.40;;
4011;SDS011;2020;48.682;9.024;2023-08-06T08:53:10;0.40;;;0.40;;
4011;SDS011;2020;48.682;9.024;2023-08-06T08:55:38;0.40;;;0.40;;
4011;SDS011;2020;48.682;9.024;2023-08-06T08:58:04;0.33;;;0.33;;
4011;SDS011;2020;48.682;9.024;2023-08-06T09:00:29;0.40;;;0.40;;
4011;SDS011;2020;48.682;9.024;2023-08-06T09:02:54;0.40;;;0.40;;
4011;SDS011;2020;48.682;9.024;2023-08-06T09:05:21;0.83;;;0.50;;
4011;SDS011;2020;48.682;9.024;2023-08-06T09:07:48;0.40;;;0.40;;
4011;SDS011;2020;48.682;9.024;2023-08-06T09:10:14;0.40;;;0.40;;
4011;SDS011;2020;48.682;9.024;2023-08-06T09:12:42;0.40;;;0.40;;
4011;SDS011;2020;48.682;9.024;2023-08-06T09:15:09;0.50;;;0.50;;
4011;SDS011;2020;48.682;9.024;2023-08-06T09:17:35;0.50;;;0.50;;
4011;SDS011;2020;48.682;9.024;2023-08-06T09:20:08;0.40;;;0.40;;
4011;SDS011;2020;48.682;9.024;2023-08-06T09:22:37;0.40;;;0.40;;
4011;SDS011;2020;48.682;9.024;2023-08-06T09:25:03;0.50;;;0.50;;
4011;SDS011;2020;48.682;9.024;2023-08-06T09:27:34;0.40;;;0.40;;
4011;SDS011;2020;48.682;9.024;2023-08-06T09:29:59;0.40;;;0.40;;
4011;SDS011;2020;48.682;9.024;2023-08-06T09:32:25;0.40;;;0.40;;
4011;SDS011;2020;48.682;9.024;2023-08-06T09:34:54;0.40;;;0.40;;
4011;SDS011;2020;48.682;9.024;2023-08-06T09:37:21;0.40;;;0.40;;
4011;SDS011;2020;48.682;9.024;2023-08-06T09:39:46;0.40;;;0.40;;
4011;SDS011;2020;48.682;9.024;2023-08-06T09:42:14;0.40;;;0.40;;
4011;SDS011;2020;48.682;9.024;2023-08-06T09:44:40;0.40;;;0.40;;
4011;SDS011;2020;48.682;9.024;2023-08-06T09:47:05;0.37;;;0.37;;
4011;SDS011;2020;48.682;9.024;2023-08-06T09:51:59;0.40;;;0.40;;
4011;SDS011;2020;48.682;9.024;2023-08-06T09:54:25;0.40;;;0.40;;
4011;SDS011;2020;48.682;9.024;2023-08-06T09:56:52;0.50;;;0.50;;
4011;SDS011;2020;48.682;9.024;2023-08-06T09:59:19;0.40;;;0.40;;
4011;SDS011;2020;48.682;9.024;2023-08-06T10:01:44;0.40;;;0.40;;
4011;SDS011;2020;48.682;9.024;2023-08-06T10:04:10;0.30;;;0.30;;
4011;SDS011;2020;48.682;9.024;2023-08-06T10:06:41;0.40;;;0.40;;
4011;SDS011;2020;48.682;9.024;2023-08-06T10:09:07;0.37;;;0.37;;
4011;SDS011;2020;48.682;9.024;2023-08-06T10:11:34;0.40;;;0.40;;
4011;SDS011;2020;48.682;9.024;2023-08-06T10:14:04;0.47;;;0.47;;
4011;SDS011;2020;48.682;9.024;2023-08-06T10:16:33;1.30;;;0.40;;
4011;SDS011;2020;48.682;9.024;2023-08-06T10:18:59;0.40;;;0.40;;
4011;SDS011;2020;48.682;9.024;2023-08-06T10:21:26;0.40;;;0.40;;
4011;SDS011;2020;48.682;9.024;2023-08-06T10:23:55;0.40;;;0.40;;
4011;SDS011;2020;48.682;9.024;2023-08-06T10:26:24;0.50;;;0.50;;
4011;SDS011;2020;48.682;9.024;2023-08-06T10:28:53;0.40;;;0.40;;
4011;SDS011;2020;48.682;9.024;2023-08-06T10:31:19;0.40;;;0.40;;
4011;SDS011;2020;48.682;9.024;2023-08-06T10:33:45;0.80;;;0.40;;
4011;SDS011;2020;48.682;9.024;2023-08-06T10:36:12;0.40;;;0.40;;
4011;SDS011;2020;48.682;9.024;2023-08-06T10:38:44;2.13;;;0.50;;
4011;SDS011;2020;48.682;9.024;2023-08-06T10:41:27;0.50;;;0.50;;
4011;SDS011;2020;48.682;9.024;2023-08-06T10:43:52;0.50;;;0.40;;
4011;SDS011;2020;48.682;9.024;2023-08-06T10:46:31;0.90;;;0.50;;
4011;SDS011;2020;48.682;9.024;2023-08-06T10:48:56;0.40;;;0.40;;
4011;SDS011;2020;48.682;9.024;2023-08-06T10:51:22;0.50;;;0.50;;
4011;SDS011;2020;48.682;9.024;2023-08-06T10:53:47;1.77;;;0.40;;
4011;SDS011;2020;48.682;9.024;2023-08-06T10:56:19;0.97;;;0.50;;
4011;SDS011;2020;48.682;9.024;2023-08-06T10:58:47;0.50;;;0.50;;
4011;SDS011;2020;48.682;9.024;2023-08-06T11:01:13;0.40;;;0.40;;
4011;SDS011;2020;48.682;9.024;2023-08-06T11:03:40;0.47;;;0.47;;
4011;SDS011;2020;48.682;9.024;2023-08-06T11:06:06;0.40;;;0.40;;
4011;SDS011;2020;48.682;9.024;2023-08-06T11:08:46;0.40;;;0.40;;
4011;SDS011;2020;48.682;9.024;2023-08-06T11:11:13;0.40;;;0.40;;
4011;SDS011;2020;48.682;9.024;2023-08-06T11:13:40;0.47;;;0.47;;
4011;SDS011;2020;48.682;9.024;2023-08-06T11:16:06;0.53;;;0.40;;
4011;SDS011;2020;48.682;9.024;2023-08-06T11:18:32;0.40;;;0.40;;
4011;SDS011;2020;48.682;9.024;2023-08-06T11:20:58;0.50;;;0.50;;
4011;SDS011;2020;48.682;9.024;2023-08-06T11:23:27;0.50;;;0.50;;
4011;SDS011;2020;48.682;9.024;2023-08-06T11:25:56;0.50;;;0.50;;
4011;SDS011;2020;48.682;9.024;2023-08-06T11:28:23;0.40;;;0.40;;
4011;SDS011;2020;48.682;9.024;2023-08-06T11:30:48;0.47;;;0.47;;
4011;SDS011;2020;48.682;9.024;2023-08-06T11:33:21;0.40;;;0.40;;
4011;SDS011;2020;48.682;9.024;2023-08-06T11:35:47;0.63;;;0.50;;
4011;SDS011;2020;48.682;9.024;2023-08-06T11:38:13;0.40;;;0.40;;
4011;SDS011;2020;48.682;9.024;2023-08-06T11:40:38;0.50;;;0.50;;
4011;SDS011;2020;48.682;9.024;2023-08-06T11:43:05;0.43;;;0.43;;
4011;SDS011;2020;48.682;9.024;2023-08-06T11:45:31;0.60;;;0.60;;
4011;SDS011;2020;48.682;9.024;2023-08-06T11:47:56;0.50;;;0.50;;
4011;SDS011;2020;48.682;9.024;2023-08-06T11:50:22;0.40;;;0.40;;
4011;SDS011;2020;48.682;9.024;2023-08-06T11:52:58;0.67;;;0.50;;
4011;SDS011;2020;48.682;9.024;2023-08-06T11:55:25;0.50;;;0.50;;
4011;SDS011;2020;48.682;9.024;2023-08-06T11:57:53;0.60;;;0.60;;
4011;SDS011;2020;48.682;9.024;2023-08-06T12:00:18;0.47;;;0.47;;
4011;SDS011;2020;48.682;9.024;2023-08-06T12:02:47;0.50;;;0.50;;
4011;SDS011;2020;48.682;9.024;2023-08-06T12:05:18;0.50;;;0.50;;
4011;SDS011;2020;48.682;9.024;2023-08-06T12:07:49;0.50;;;0.50;;
4011;SDS011;2020;48.682;9.024;2023-08-06T12:10:16;0.47;;;0.47;;
4011;SDS011;2020;48.682;9.024;2023-08-06T12:12:42;0.80;;;0.57;;
4011;SDS011;2020;48.682;9.024;2023-08-06T12:15:08;0.40;;;0.40;;
4011;SDS011;2020;48.682;9.024;2023-08-06T12:17:34;0.67;;;0.67;;
4011;SDS011;2020;48.682;9.024;2023-08-06T12:20:00;1.60;;;0.50;;
4011;SDS011;2020;48.682;9.024;2023-08-06T12:22:27;0.50;;;0.50;;
4011;SDS011;2020;48.682;9.024;2023-08-06T12:24:52;0.40;;;0.40;;
4011;SDS011;2020;48.682;9.024;2023-08-06T12:27:17;0.50;;;0.50;;
4011;SDS011;2020;48.682;9.024;2023-08-06T12:29:43;1.37;;;0.60;;
4011;SDS011;2020;48.682;9.024;2023-08-06T12:32:12;0.40;;;0.40;;
4011;SDS011;2020;48.682;9.024;2023-08-06T12:34:39;0.50;;;0.50;;
4011;SDS011;2020;48.682;9.024;2023-08-06T12:37:05;0.60;;;0.60;;
4011;SDS011;2020;48.682;9.024;2023-08-06T12:39:30;0.47;;;0.47;;
4011;SDS011;2020;48.682;9.024;2023-08-06T12:41:57;0.50;;;0.50;;
4011;SDS011;2020;48.682;9.024;2023-08-06T12:44:25;0.50;;;0.50;;
4011;SDS011;2020;48.682;9.024;2023-08-06T12:46:51;0.50;;;0.50;;
4011;SDS011;2020;48.682;9.024;2023-08-06T12:49:17;0.70;;;0.70;;
4011;SDS011;2020;48.682;9.024;2023-08-06T12:51:43;2.10;;;0.70;;
4011;SDS011;2020;48.682;9.024;2023-08-06T12:54:08;0.60;;;0.60;;
4011;SDS011;2020;48.682;9.024;2023-08-06T12:56:34;0.63;;;0.53;;
4011;SDS011;2020;48.682;9.024;2023-08-06T12:58:59;0.60;;;0.60;;
4011;SDS011;2020;48.682;9.024;2023-08-06T13:01:24;4.10;;;0.70;;
4011;SDS011;2020;48.682;9.024;2023-08-06T13:03:50;0.50;;;0.50;;
4011;SDS011;2020;48.682;9.024;2023-08-06T13:06:15;0.60;;;0.60;;
4011;SDS011;2020;48.682;9.024;2023-08-06T13:08:40;0.50;;;0.50;;
4011;SDS011;2020;48.682;9.024;2023-08-06T13:11:05;0.50;;;0.50;;
4011;SDS011;2020;48.682;9.024;2023-08-06T13:13:31;0.50;;;0.50;;
4011;SDS011;2020;48.682;9.024;2023-08-06T13:15:56;0.70;;;0.70;;
4011;SDS011;2020;48.682;9.024;2023-08-06T13:18:21;0.60;;;0.60;;
4011;SDS011;2020;48.682;9.024;2023-08-06T13:20:47;0.73;;;0.73;;
4011;SDS011;2020;48.682;9.024;2023-08-06T13:23:14;0.60;;;0.60;;
4011;SDS011;2020;48.682;9.024;2023-08-06T13:25:41;0.70;;;0.70;;
4011;SDS011;2020;48.682;9.024;2023-08-06T13:28:07;0.60;;;0.60;;
4011;SDS011;2020;48.682;9.024;2023-08-06T13:30:33;0.57;;;0.57;;
4011;SDS011;2020;48.682;9.024;2023-08-06T13:33:00;0.93;;;0.50;;
4011;SDS011;2020;48.682;9.024;2023-08-06T13:35:26;0.90;;;0.60;;
4011;SDS011;2020;48.682;9.024;2023-08-06T13:37:51;0.40;;;0.40;;
4011;SDS011;2020;48.682;9.024;2023-08-06T13:40:17;0.63;;;0.60;;
4011;SDS011;2020;48.682;9.024;2023-08-06T13:42:42;0.50;;;0.50;;
4011;SDS011;2020;48.682;9.024;2023-08-06T13:45:08;0.60;;;0.60;;
4011;SDS011;2020;48.682;9.024;2023-08-06T13:47:34;0.70;;;0.70;;
4011;SDS011;2020;48.682;9.024;2023-08-06T13:49:59;0.70;;;0.70;;
4011;SDS011;2020;48.682;9.024;2023-08-06T13:52:25;0.63;;;0.60;;
4011;SDS011;2020;48.682;9.024;2023-08-06T13:54:51;1.33;;;0.60;;
4011;SDS011;2020;48.682;9.024;2023-08-06T13:57:16;0.83;;;0.50;;
4011;SDS011;2020;48.682;9.024;2023-08-06T13:59:45;0.50;;;0.50;;
4011;SDS011;2020;48.682;9.024;2023-08-06T14:02:10;0.60;;;0.60;;
4011;SDS011;2020;48.682;9.024;2023-08-06T14:04:36;1.47;;;0.50;;
4011;SDS011;2020;48.682;9.024;2023-08-06T14:07:02;0.67;;;0.67;;
4011;SDS011;2020;48.682;9.024;2023-08-06T14:09:28;0.63;;;0.60;;
4011;SDS011;2020;48.682;9.024;2023-08-06T14:11:53;0.60;;;0.60;;
4011;SDS011;2020;48.682;9.024;2023-08-06T14:14:18;2.53;;;0.60;;
4011;SDS011;2020;48.682;9.024;2023-08-06T14:16:45;0.50;;;0.50;;
4011;SDS011;2020;48.682;9.024;2023-08-06T14:19:10;0.67;;;0.50;;
4011;SDS011;2020;48.682;9.024;2023-08-06T14:21:35;0.70;;;0.70;;
4011;SDS011;2020;48.682;9.024;2023-08-06T14:24:01;0.50;;;0.50;;
4011;SDS011;2020;48.682;9.024;2023-08-06T14:26:26;0.50;;;0.50;;
4011;SDS011;2020;48.682;9.024;2023-08-06T14:28:51;1.47;;;0.57;;
4011;SDS011;2020;48.682;9.024;2023-08-06T14:31:19;0.53;;;0.53;;
4011;SDS011;2020;48.682;9.024;2023-08-06T14:33:45;0.70;;;0.70;;
4011;SDS011;2020;48.682;9.024;2023-08-06T14:36:10;0.63;;;0.63;;
4011;SDS011;2020;48.682;9.024;2023-08-06T14:38:36;0.50;;;0.50;;
4011;SDS011;2020;48.682;9.024;2023-08-06T14:41:01;0.67;;;0.60;;
4011;SDS011;2020;48.682;9.024;2023-08-06T14:43:26;0.60;;;0.60;;
4011;SDS011;2020;48.682;9.024;2023-08-06T14:45:52;0.70;;;0.70;;
4011;SDS011;2020;48.682;9.024;2023-08-06T14:48:17;0.57;;;0.57;;
4011;SDS011;2020;48.682;9.024;2023-08-06T14:50:42;0.60;;;0.60;;
4011;SDS011;2020;48.682;9.024;2023-08-06T14:53:07;0.50;;;0.50;;
4011;SDS011;2020;48.682;9.024;2023-08-06T14:55:35;0.50;;;0.50;;
4011;SDS011;2020;48.682;9.024;2023-08-06T14:58:00;0.60;;;0.60;;
4011;SDS011;2020;48.682;9.024;2023-08-06T15:00:26;0.80;;;0.80;;
4011;SDS011;2020;48.682;9.024;2023-08-06T15:02:51;0.50;;;0.50;;
4011;SDS011;2020;48.682;9.024;2023-08-06T15:05:16;0.50;;;0.50;;
4011;SDS011;2020;48.682;9.024;2023-08-06T15:07:42;0.60;;;0.60;;
4011;SDS011;2020;48.682;9.024;2023-08-06T15:10:07;0.50;;;0.50;;
4011;SDS011;2020;48.682;9.024;2023-08-06T15:12:32;0.63;;;0.63;;
4011;SDS011;2020;48.682;9.024;2023-08-06T15:14:58;0.60;;;0.60;;
4011;SDS011;2020;48.682;9.024;2023-08-06T15:17:25;0.50;;;0.50;;
4011;SDS011;2020;48.682;9.024;2023-08-06T15:19:51;0.57;;;0.57;;